1922 NOT_NAMED (1922233N18144)


IBTrACS version v04r00. Visit IBTrACS website for data access.
Please direct all questions to the IBTrACS Q and A forum

Storm track - Intensity - Wind Radii - Intensity Data - Source Data - All data

Summary Information

Storm ID 1922233N18144
Start Aug 20 22Z
End Aug 22 22Z
ATCF IDs
Track status Best track data.

Storm track plot

Map of storm track

Intensity plots

No Intensity information for this storm


Radial wind information

No radial wind information for this storm


Position and Intensity Table

BASIN ISO_TIME_________ NATURE LAT LON
degrees north degrees east
WP 1922-08-20 22:00:00 NR 18.20 143.60
WP 1922-08-21 00:00:00 NR 18.49 143.58
WP 03:00:00 NR 18.92 143.53
WP 06:00:00 NR 19.37 143.49
WP 09:00:00 NR 19.84 143.42
WP 10:00:00 NR 20.00 143.40
WP 12:00:00 NR 20.34 143.34
WP 15:00:00 NR 20.85 143.25
WP 18:00:00 NR 21.36 143.14
WP 21:00:00 NR 21.85 143.04
WP 22:00:00 NR 22.00 143.00
WP 1922-08-22 00:00:00 NR 22.28 142.93
WP 03:00:00 NR 22.66 142.83
WP 06:00:00 NR 23.03 142.73
WP 09:00:00 NR 23.38 142.63
WP 10:00:00 NR 23.50 142.60
WP 12:00:00 NR 23.74 142.54
WP 15:00:00 NR 24.11 142.47
WP 18:00:00 NR 24.49 142.39
WP 21:00:00 NR 24.87 142.32
WP 22:00:00 NR 25.00 142.30

Source Information

Agency Information
USA
TOKYO
CMA
HKO
NEWDELHI
REUNION
BOM
NADI
WELLINGTON
DS824
TD9636 cons_worldwide_trop_cyclone_18710101-19891231-003:Line=6705
TD9635
NEUMANN
MLC

All available IBTrACS Data

SEASON BASIN SUBBASIN ISO_TIME_________ NATURE LAT LON DIST2LAND LANDFALL IFLAG USA SSHS TD9636 LAT TD9636 LON TD9636 STAGE STORM SPEED STORM DIR
Year degrees north degrees east km km 1 degrees north degrees east kts degrees
1922 WP MM 1922-08-20 22:00:00 NR 18.20 143.60 1866 1836 __________O___ -1 18.20 143.60 7 9 0
1922 WP MM 1922-08-21 00:00:00 NR 18.49 143.58 1836 1790 __________P___ -1 18.49 143.58 7 9 356
1922 WP MM 03:00:00 NR 18.92 143.53 1790 1739 __________P___ -1 18.92 143.53 7 9 354
1922 WP MM 06:00:00 NR 19.37 143.49 1739 1694 __________P___ -1 19.37 143.49 7 9 354
1922 WP MM 09:00:00 NR 19.84 143.42 1694 1674 __________P___ -1 19.84 143.42 7 10 353
1922 WP MM 10:00:00 NR 20.00 143.40 1674 1639 __________O___ -1 20.00 143.40 7 10 351
1922 WP MM 12:00:00 NR 20.34 143.34 1639 1574 __________P___ -1 20.34 143.34 7 10 351
1922 WP MM 15:00:00 NR 20.85 143.25 1574 1519 __________P___ -1 20.85 143.25 7 11 350
1922 WP MM 18:00:00 NR 21.36 143.14 1519 1475 __________P___ -1 21.36 143.14 7 10 349
1922 WP MM 21:00:00 NR 21.85 143.04 1475 1455 __________P___ -1 21.85 143.04 7 10 348
1922 WP MM 22:00:00 NR 22.00 143.00 1455 1420 __________O___ -1 22.00 143.00 3 9 347
1922 WP MM 1922-08-22 00:00:00 NR 22.28 142.93 1420 1376 __________P___ -1 22.28 142.93 3 8 347
1922 WP MM 03:00:00 NR 22.66 142.83 1376 1342 __________P___ -1 22.66 142.83 3 8 346
1922 WP MM 06:00:00 NR 23.03 142.73 1342 1298 __________P___ -1 23.03 142.73 3 7 346
1922 WP MM 09:00:00 NR 23.38 142.63 1298 1288 __________P___ -1 23.38 142.63 3 7 347
1922 WP MM 10:00:00 NR 23.50 142.60 1288 1264 __________O___ -1 23.50 142.60 4 7 348
1922 WP MM 12:00:00 NR 23.74 142.54 1264 1225 __________P___ -1 23.74 142.54 4 8 349
1922 WP MM 15:00:00 NR 24.11 142.47 1225 1179 __________P___ -1 24.11 142.47 4 8 350
1922 WP MM 18:00:00 NR 24.49 142.39 1179 1133 __________P___ -1 24.49 142.39 4 8 350
1922 WP MM 21:00:00 NR 24.87 142.32 1133 1122 __________P___ -1 24.87 142.32 4 8 351
1922 WP MM 22:00:00 NR 25.00 142.30 1122 __________O___ -1 25.00 142.30 4 8 0